sensor_id;sensor_type;location;lat;lon;timestamp;P1;durP1;ratioP1;P2;durP2;ratioP2
9958;SDS011;5019;48.012;7.812;2023-03-02T00:01:25;19.80;;;10.80;;
9958;SDS011;5019;48.012;7.812;2023-03-02T00:03:51;24.10;;;13.43;;
9958;SDS011;5019;48.012;7.812;2023-03-02T00:06:17;26.30;;;11.93;;
9958;SDS011;5019;48.012;7.812;2023-03-02T00:08:44;22.53;;;11.47;;
9958;SDS011;5019;48.012;7.812;2023-03-02T00:11:10;23.00;;;11.80;;
9958;SDS011;5019;48.012;7.812;2023-03-02T00:13:39;21.30;;;12.57;;
9958;SDS011;5019;48.012;7.812;2023-03-02T00:16:05;26.03;;;14.57;;
9958;SDS011;5019;48.012;7.812;2023-03-02T00:18:31;26.23;;;13.73;;
9958;SDS011;5019;48.012;7.812;2023-03-02T00:20:57;25.90;;;12.47;;
9958;SDS011;5019;48.012;7.812;2023-03-02T00:23:23;30.83;;;12.83;;
9958;SDS011;5019;48.012;7.812;2023-03-02T00:25:49;18.10;;;11.87;;
9958;SDS011;5019;48.012;7.812;2023-03-02T00:28:15;24.50;;;11.90;;
9958;SDS011;5019;48.012;7.812;2023-03-02T00:30:41;25.87;;;10.83;;
9958;SDS011;5019;48.012;7.812;2023-03-02T00:33:07;23.63;;;11.70;;
9958;SDS011;5019;48.012;7.812;2023-03-02T00:35:37;18.17;;;11.20;;
9958;SDS011;5019;48.012;7.812;2023-03-02T00:38:03;17.77;;;9.90;;
9958;SDS011;5019;48.012;7.812;2023-03-02T00:40:29;18.43;;;10.90;;
9958;SDS011;5019;48.012;7.812;2023-03-02T00:42:55;30.60;;;11.93;;
9958;SDS011;5019;48.012;7.812;2023-03-02T00:45:21;23.27;;;11.67;;
9958;SDS011;5019;48.012;7.812;2023-03-02T00:47:47;19.60;;;12.10;;
9958;SDS011;5019;48.012;7.812;2023-03-02T00:50:13;22.73;;;12.63;;
9958;SDS011;5019;48.012;7.812;2023-03-02T00:52:38;22.47;;;11.57;;
9958;SDS011;5019;48.012;7.812;2023-03-02T00:55:05;27.37;;;14.30;;
9958;SDS011;5019;48.012;7.812;2023-03-02T00:57:31;20.07;;;12.27;;
9958;SDS011;5019;48.012;7.812;2023-03-02T00:59:57;32.77;;;12.40;;
9958;SDS011;5019;48.012;7.812;2023-03-02T01:02:23;24.60;;;12.00;;
9958;SDS011;5019;48.012;7.812;2023-03-02T01:04:49;18.13;;;11.73;;
9958;SDS011;5019;48.012;7.812;2023-03-02T01:07:17;25.97;;;11.50;;
9958;SDS011;5019;48.012;7.812;2023-03-02T01:09:45;23.83;;;9.90;;
9958;SDS011;5019;48.012;7.812;2023-03-02T01:12:13;22.00;;;11.07;;
9958;SDS011;5019;48.012;7.812;2023-03-02T01:14:40;22.73;;;11.90;;
9958;SDS011;5019;48.012;7.812;2023-03-02T01:17:07;21.57;;;12.30;;
9958;SDS011;5019;48.012;7.812;2023-03-02T01:19:34;26.03;;;12.43;;
9958;SDS011;5019;48.012;7.812;2023-03-02T01:22:00;21.80;;;13.10;;
9958;SDS011;5019;48.012;7.812;2023-03-02T01:24:26;20.40;;;10.60;;
9958;SDS011;5019;48.012;7.812;2023-03-02T01:26:52;31.67;;;13.37;;
9958;SDS011;5019;48.012;7.812;2023-03-02T01:29:18;20.33;;;10.40;;
9958;SDS011;5019;48.012;7.812;2023-03-02T01:31:44;19.77;;;10.50;;
9958;SDS011;5019;48.012;7.812;2023-03-02T01:34:10;19.10;;;10.40;;
9958;SDS011;5019;48.012;7.812;2023-03-02T01:36:36;18.80;;;11.13;;
9958;SDS011;5019;48.012;7.812;2023-03-02T01:39:02;21.40;;;11.50;;
9958;SDS011;5019;48.012;7.812;2023-03-02T01:41:29;25.07;;;13.57;;
9958;SDS011;5019;48.012;7.812;2023-03-02T01:43:55;20.80;;;10.27;;
9958;SDS011;5019;48.012;7.812;2023-03-02T01:46:21;15.97;;;9.93;;
9958;SDS011;5019;48.012;7.812;2023-03-02T01:48:59;20.30;;;9.87;;
9958;SDS011;5019;48.012;7.812;2023-03-02T01:51:26;23.40;;;10.83;;
9958;SDS011;5019;48.012;7.812;2023-03-02T01:53:53;21.27;;;11.73;;
9958;SDS011;5019;48.012;7.812;2023-03-02T01:56:25;16.70;;;11.00;;
9958;SDS011;5019;48.012;7.812;2023-03-02T01:58:53;20.47;;;12.67;;
9958;SDS011;5019;48.012;7.812;2023-03-02T02:01:21;25.40;;;12.20;;
9958;SDS011;5019;48.012;7.812;2023-03-02T02:03:48;18.47;;;11.07;;
9958;SDS011;5019;48.012;7.812;2023-03-02T02:06:18;14.90;;;8.67;;
9958;SDS011;5019;48.012;7.812;2023-03-02T02:08:46;22.10;;;11.43;;
9958;SDS011;5019;48.012;7.812;2023-03-02T02:11:13;27.30;;;12.37;;
9958;SDS011;5019;48.012;7.812;2023-03-02T02:13:39;16.90;;;11.70;;
9958;SDS011;5019;48.012;7.812;2023-03-02T02:16:05;23.37;;;10.50;;
9958;SDS011;5019;48.012;7.812;2023-03-02T02:18:32;17.63;;;9.87;;
9958;SDS011;5019;48.012;7.812;2023-03-02T02:20:58;17.73;;;10.07;;
9958;SDS011;5019;48.012;7.812;2023-03-02T02:23:31;22.27;;;10.33;;
9958;SDS011;5019;48.012;7.812;2023-03-02T02:26:15;19.77;;;9.17;;
9958;SDS011;5019;48.012;7.812;2023-03-02T02:28:46;21.70;;;9.93;;
9958;SDS011;5019;48.012;7.812;2023-03-02T02:31:21;22.90;;;11.37;;
9958;SDS011;5019;48.012;7.812;2023-03-02T02:33:51;16.77;;;9.70;;
9958;SDS011;5019;48.012;7.812;2023-03-02T02:36:19;21.20;;;10.03;;
9958;SDS011;5019;48.012;7.812;2023-03-02T02:38:47;13.87;;;9.80;;
9958;SDS011;5019;48.012;7.812;2023-03-02T02:41:19;30.77;;;10.43;;
9958;SDS011;5019;48.012;7.812;2023-03-02T02:43:46;22.47;;;10.27;;
9958;SDS011;5019;48.012;7.812;2023-03-02T02:46:12;18.83;;;10.20;;
9958;SDS011;5019;48.012;7.812;2023-03-02T02:48:38;12.00;;;8.57;;
9958;SDS011;5019;48.012;7.812;2023-03-02T02:51:05;20.23;;;9.90;;
9958;SDS011;5019;48.012;7.812;2023-03-02T02:53:41;21.03;;;10.67;;
9958;SDS011;5019;48.012;7.812;2023-03-02T02:56:08;19.63;;;9.43;;
9958;SDS011;5019;48.012;7.812;2023-03-02T02:58:42;17.10;;;10.27;;
9958;SDS011;5019;48.012;7.812;2023-03-02T03:01:12;11.57;;;7.57;;
9958;SDS011;5019;48.012;7.812;2023-03-02T03:03:39;18.27;;;7.90;;
9958;SDS011;5019;48.012;7.812;2023-03-02T03:06:11;16.77;;;9.50;;
9958;SDS011;5019;48.012;7.812;2023-03-02T03:11:11;26.00;;;9.60;;
9958;SDS011;5019;48.012;7.812;2023-03-02T03:13:38;13.77;;;8.20;;
9958;SDS011;5019;48.012;7.812;2023-03-02T03:16:05;15.57;;;9.87;;
9958;SDS011;5019;48.012;7.812;2023-03-02T03:18:32;15.53;;;9.03;;
9958;SDS011;5019;48.012;7.812;2023-03-02T03:20:58;14.47;;;10.00;;
9958;SDS011;5019;48.012;7.812;2023-03-02T03:23:24;16.83;;;10.60;;
9958;SDS011;5019;48.012;7.812;2023-03-02T03:25:50;13.03;;;8.00;;
9958;SDS011;5019;48.012;7.812;2023-03-02T03:28:16;17.27;;;9.30;;
9958;SDS011;5019;48.012;7.812;2023-03-02T03:30:42;20.53;;;10.67;;
9958;SDS011;5019;48.012;7.812;2023-03-02T03:33:08;14.77;;;10.20;;
9958;SDS011;5019;48.012;7.812;2023-03-02T03:35:37;21.87;;;10.70;;
9958;SDS011;5019;48.012;7.812;2023-03-02T03:38:06;18.13;;;9.50;;
9958;SDS011;5019;48.012;7.812;2023-03-02T03:40:32;23.73;;;11.60;;
9958;SDS011;5019;48.012;7.812;2023-03-02T03:43:02;13.47;;;9.13;;
9958;SDS011;5019;48.012;7.812;2023-03-02T03:45:28;14.57;;;8.87;;
9958;SDS011;5019;48.012;7.812;2023-03-02T03:47:54;26.00;;;10.63;;
9958;SDS011;5019;48.012;7.812;2023-03-02T03:50:20;18.20;;;10.67;;
9958;SDS011;5019;48.012;7.812;2023-03-02T03:52:46;16.27;;;8.87;;
9958;SDS011;5019;48.012;7.812;2023-03-02T03:55:13;25.13;;;10.43;;
9958;SDS011;5019;48.012;7.812;2023-03-02T03:57:39;15.60;;;9.57;;
9958;SDS011;5019;48.012;7.812;2023-03-02T04:00:06;23.47;;;9.00;;
9958;SDS011;5019;48.012;7.812;2023-03-02T04:02:34;13.90;;;9.20;;
9958;SDS011;5019;48.012;7.812;2023-03-02T04:05:00;20.53;;;9.33;;
9958;SDS011;5019;48.012;7.812;2023-03-02T04:07:34;15.63;;;10.87;;
9958;SDS011;5019;48.012;7.812;2023-03-02T04:10:00;20.83;;;10.03;;
9958;SDS011;5019;48.012;7.812;2023-03-02T04:12:30;12.80;;;9.03;;
9958;SDS011;5019;48.012;7.812;2023-03-02T04:14:56;18.17;;;9.43;;
9958;SDS011;5019;48.012;7.812;2023-03-02T04:17:22;10.07;;;7.90;;
9958;SDS011;5019;48.012;7.812;2023-03-02T04:19:48;17.10;;;11.20;;
9958;SDS011;5019;48.012;7.812;2023-03-02T04:22:14;23.80;;;12.07;;
9958;SDS011;5019;48.012;7.812;2023-03-02T04:24:41;17.10;;;8.20;;
9958;SDS011;5019;48.012;7.812;2023-03-02T04:27:07;30.93;;;10.93;;
9958;SDS011;5019;48.012;7.812;2023-03-02T04:29:33;15.90;;;9.37;;
9958;SDS011;5019;48.012;7.812;2023-03-02T04:31:59;17.97;;;11.20;;
9958;SDS011;5019;48.012;7.812;2023-03-02T04:34:25;13.47;;;7.70;;
9958;SDS011;5019;48.012;7.812;2023-03-02T04:36:52;11.83;;;7.40;;
9958;SDS011;5019;48.012;7.812;2023-03-02T04:39:18;21.80;;;9.90;;
9958;SDS011;5019;48.012;7.812;2023-03-02T04:41:44;18.07;;;10.27;;
9958;SDS011;5019;48.012;7.812;2023-03-02T04:44:11;24.00;;;9.73;;
9958;SDS011;5019;48.012;7.812;2023-03-02T04:46:37;21.43;;;11.90;;
9958;SDS011;5019;48.012;7.812;2023-03-02T04:49:04;19.93;;;8.27;;
9958;SDS011;5019;48.012;7.812;2023-03-02T04:51:31;18.97;;;11.00;;
9958;SDS011;5019;48.012;7.812;2023-03-02T04:54:01;19.83;;;9.80;;
9958;SDS011;5019;48.012;7.812;2023-03-02T04:56:28;22.57;;;12.70;;
9958;SDS011;5019;48.012;7.812;2023-03-02T04:58:54;13.67;;;8.67;;
9958;SDS011;5019;48.012;7.812;2023-03-02T05:01:20;24.40;;;11.03;;
9958;SDS011;5019;48.012;7.812;2023-03-02T05:03:47;15.50;;;10.37;;
9958;SDS011;5019;48.012;7.812;2023-03-02T05:06:13;25.27;;;12.60;;
9958;SDS011;5019;48.012;7.812;2023-03-02T05:08:39;16.27;;;9.77;;
9958;SDS011;5019;48.012;7.812;2023-03-02T05:11:05;13.97;;;10.20;;
9958;SDS011;5019;48.012;7.812;2023-03-02T05:13:32;18.30;;;9.50;;
9958;SDS011;5019;48.012;7.812;2023-03-02T05:15:58;22.13;;;11.30;;
9958;SDS011;5019;48.012;7.812;2023-03-02T05:18:25;17.70;;;12.00;;
9958;SDS011;5019;48.012;7.812;2023-03-02T05:20:51;16.50;;;8.53;;
9958;SDS011;5019;48.012;7.812;2023-03-02T05:23:18;19.17;;;10.87;;
9958;SDS011;5019;48.012;7.812;2023-03-02T05:25:48;21.97;;;11.97;;
9958;SDS011;5019;48.012;7.812;2023-03-02T05:28:14;19.83;;;9.37;;
9958;SDS011;5019;48.012;7.812;2023-03-02T05:30:40;26.80;;;12.37;;
9958;SDS011;5019;48.012;7.812;2023-03-02T05:33:07;22.03;;;12.30;;
9958;SDS011;5019;48.012;7.812;2023-03-02T05:35:33;16.10;;;10.73;;
9958;SDS011;5019;48.012;7.812;2023-03-02T05:37:59;17.93;;;10.37;;
9958;SDS011;5019;48.012;7.812;2023-03-02T05:40:25;22.53;;;11.57;;
9958;SDS011;5019;48.012;7.812;2023-03-02T05:42:51;16.03;;;10.43;;
9958;SDS011;5019;48.012;7.812;2023-03-02T05:45:21;19.10;;;10.63;;
9958;SDS011;5019;48.012;7.812;2023-03-02T05:47:47;22.85;;;11.18;;
9958;SDS011;5019;48.012;7.812;2023-03-02T05:50:13;14.80;;;7.93;;
9958;SDS011;5019;48.012;7.812;2023-03-02T05:52:39;11.53;;;8.10;;
9958;SDS011;5019;48.012;7.812;2023-03-02T05:55:05;14.90;;;9.70;;
9958;SDS011;5019;48.012;7.812;2023-03-02T05:57:31;32.10;;;13.97;;
9958;SDS011;5019;48.012;7.812;2023-03-02T05:59:58;21.17;;;10.83;;
9958;SDS011;5019;48.012;7.812;2023-03-02T06:02:24;20.10;;;11.90;;
9958;SDS011;5019;48.012;7.812;2023-03-02T06:04:50;30.37;;;10.90;;
9958;SDS011;5019;48.012;7.812;2023-03-02T06:07:16;20.60;;;12.13;;
9958;SDS011;5019;48.012;7.812;2023-03-02T06:09:42;20.40;;;12.43;;
9958;SDS011;5019;48.012;7.812;2023-03-02T06:12:08;16.50;;;10.03;;
9958;SDS011;5019;48.012;7.812;2023-03-02T06:14:34;19.73;;;11.10;;
9958;SDS011;5019;48.012;7.812;2023-03-02T06:17:00;14.07;;;10.13;;
9958;SDS011;5019;48.012;7.812;2023-03-02T06:19:26;23.90;;;11.20;;
9958;SDS011;5019;48.012;7.812;2023-03-02T06:21:52;20.77;;;12.00;;
9958;SDS011;5019;48.012;7.812;2023-03-02T06:24:18;23.53;;;11.50;;
9958;SDS011;5019;48.012;7.812;2023-03-02T06:26:44;16.70;;;9.40;;
9958;SDS011;5019;48.012;7.812;2023-03-02T06:29:10;18.60;;;10.77;;
9958;SDS011;5019;48.012;7.812;2023-03-02T06:31:36;23.50;;;10.57;;
9958;SDS011;5019;48.012;7.812;2023-03-02T06:34:02;24.47;;;11.10;;
9958;SDS011;5019;48.012;7.812;2023-03-02T06:36:28;17.07;;;10.80;;
9958;SDS011;5019;48.012;7.812;2023-03-02T06:38:54;16.90;;;9.40;;
9958;SDS011;5019;48.012;7.812;2023-03-02T06:41:20;16.87;;;8.50;;
9958;SDS011;5019;48.012;7.812;2023-03-02T06:43:46;21.40;;;10.02;;
9958;SDS011;5019;48.012;7.812;2023-03-02T06:46:12;17.40;;;12.17;;
9958;SDS011;5019;48.012;7.812;2023-03-02T06:48:38;23.67;;;11.90;;
9958;SDS011;5019;48.012;7.812;2023-03-02T06:51:04;19.67;;;10.90;;
9958;SDS011;5019;48.012;7.812;2023-03-02T06:53:31;18.57;;;10.80;;
9958;SDS011;5019;48.012;7.812;2023-03-02T06:55:57;21.08;;;10.75;;
9958;SDS011;5019;48.012;7.812;2023-03-02T06:58:23;33.67;;;12.03;;
9958;SDS011;5019;48.012;7.812;2023-03-02T07:00:49;25.10;;;11.47;;
9958;SDS011;5019;48.012;7.812;2023-03-02T07:03:15;14.93;;;8.57;;
9958;SDS011;5019;48.012;7.812;2023-03-02T07:05:42;19.37;;;9.80;;
9958;SDS011;5019;48.012;7.812;2023-03-02T07:08:08;18.53;;;9.37;;
9958;SDS011;5019;48.012;7.812;2023-03-02T07:10:35;20.37;;;9.67;;
9958;SDS011;5019;48.012;7.812;2023-03-02T07:13:01;21.47;;;11.70;;
9958;SDS011;5019;48.012;7.812;2023-03-02T07:15:27;16.35;;;10.48;;
9958;SDS011;5019;48.012;7.812;2023-03-02T07:17:53;19.20;;;11.82;;
9958;SDS011;5019;48.012;7.812;2023-03-02T07:20:19;26.03;;;11.47;;
9958;SDS011;5019;48.012;7.812;2023-03-02T07:22:45;21.17;;;12.55;;
9958;SDS011;5019;48.012;7.812;2023-03-02T07:25:11;25.70;;;12.20;;
9958;SDS011;5019;48.012;7.812;2023-03-02T07:27:38;19.27;;;9.33;;
9958;SDS011;5019;48.012;7.812;2023-03-02T07:30:04;21.33;;;12.07;;
9958;SDS011;5019;48.012;7.812;2023-03-02T07:32:30;22.00;;;10.10;;
9958;SDS011;5019;48.012;7.812;2023-03-02T07:34:56;15.97;;;10.80;;
9958;SDS011;5019;48.012;7.812;2023-03-02T07:37:22;19.90;;;10.30;;
9958;SDS011;5019;48.012;7.812;2023-03-02T07:39:48;24.57;;;11.10;;
9958;SDS011;5019;48.012;7.812;2023-03-02T07:42:15;16.53;;;10.00;;
9958;SDS011;5019;48.012;7.812;2023-03-02T07:44:41;18.93;;;11.17;;
9958;SDS011;5019;48.012;7.812;2023-03-02T07:47:07;26.23;;;12.80;;
9958;SDS011;5019;48.012;7.812;2023-03-02T07:49:33;17.97;;;10.10;;
9958;SDS011;5019;48.012;7.812;2023-03-02T07:52:00;16.63;;;9.73;;
9958;SDS011;5019;48.012;7.812;2023-03-02T07:54:26;27.33;;;11.10;;
9958;SDS011;5019;48.012;7.812;2023-03-02T07:56:54;14.23;;;9.00;;
9958;SDS011;5019;48.012;7.812;2023-03-02T07:59:20;21.50;;;12.13;;
9958;SDS011;5019;48.012;7.812;2023-03-02T08:01:46;21.90;;;8.50;;
9958;SDS011;5019;48.012;7.812;2023-03-02T08:04:12;23.17;;;11.37;;
9958;SDS011;5019;48.012;7.812;2023-03-02T08:06:38;24.60;;;10.70;;
9958;SDS011;5019;48.012;7.812;2023-03-02T08:09:04;22.57;;;14.03;;
9958;SDS011;5019;48.012;7.812;2023-03-02T08:11:30;24.80;;;11.90;;
9958;SDS011;5019;48.012;7.812;2023-03-02T08:14:00;24.30;;;12.77;;
9958;SDS011;5019;48.012;7.812;2023-03-02T08:16:26;23.17;;;11.67;;
9958;SDS011;5019;48.012;7.812;2023-03-02T08:18:52;14.17;;;9.73;;
9958;SDS011;5019;48.012;7.812;2023-03-02T08:21:19;28.90;;;11.80;;
9958;SDS011;5019;48.012;7.812;2023-03-02T08:23:45;17.90;;;9.70;;
9958;SDS011;5019;48.012;7.812;2023-03-02T08:26:12;22.67;;;11.73;;
9958;SDS011;5019;48.012;7.812;2023-03-02T08:28:38;17.73;;;8.80;;
9958;SDS011;5019;48.012;7.812;2023-03-02T08:31:05;17.00;;;9.87;;
9958;SDS011;5019;48.012;7.812;2023-03-02T08:33:31;22.00;;;8.63;;
9958;SDS011;5019;48.012;7.812;2023-03-02T08:35:59;18.77;;;10.43;;
9958;SDS011;5019;48.012;7.812;2023-03-02T08:38:25;19.60;;;11.17;;
9958;SDS011;5019;48.012;7.812;2023-03-02T08:40:51;18.47;;;9.03;;
9958;SDS011;5019;48.012;7.812;2023-03-02T08:43:20;19.07;;;11.03;;
9958;SDS011;5019;48.012;7.812;2023-03-02T08:45:50;29.53;;;10.00;;
9958;SDS011;5019;48.012;7.812;2023-03-02T08:48:17;17.40;;;11.87;;
9958;SDS011;5019;48.012;7.812;2023-03-02T08:50:43;18.53;;;11.57;;
9958;SDS011;5019;48.012;7.812;2023-03-02T08:53:09;27.40;;;12.13;;
9958;SDS011;5019;48.012;7.812;2023-03-02T08:55:35;21.53;;;9.77;;
9958;SDS011;5019;48.012;7.812;2023-03-02T08:58:02;19.43;;;8.50;;
9958;SDS011;5019;48.012;7.812;2023-03-02T09:00:28;19.43;;;10.87;;
9958;SDS011;5019;48.012;7.812;2023-03-02T09:02:54;28.30;;;11.73;;
9958;SDS011;5019;48.012;7.812;2023-03-02T09:05:20;22.30;;;12.67;;
9958;SDS011;5019;48.012;7.812;2023-03-02T09:07:46;20.77;;;10.47;;
9958;SDS011;5019;48.012;7.812;2023-03-02T09:10:12;19.83;;;11.33;;
9958;SDS011;5019;48.012;7.812;2023-03-02T09:12:38;20.30;;;13.37;;
9958;SDS011;5019;48.012;7.812;2023-03-02T09:15:04;24.37;;;13.57;;
9958;SDS011;5019;48.012;7.812;2023-03-02T09:17:30;28.87;;;14.43;;
9958;SDS011;5019;48.012;7.812;2023-03-02T09:19:56;21.97;;;12.33;;
9958;SDS011;5019;48.012;7.812;2023-03-02T09:22:24;29.00;;;14.83;;
9958;SDS011;5019;48.012;7.812;2023-03-02T09:24:50;23.33;;;11.43;;
9958;SDS011;5019;48.012;7.812;2023-03-02T09:27:16;25.77;;;12.50;;
9958;SDS011;5019;48.012;7.812;2023-03-02T09:29:42;25.27;;;13.80;;
9958;SDS011;5019;48.012;7.812;2023-03-02T09:32:08;26.80;;;11.20;;
9958;SDS011;5019;48.012;7.812;2023-03-02T09:34:34;30.20;;;13.20;;
9958;SDS011;5019;48.012;7.812;2023-03-02T09:37:00;24.73;;;13.97;;
9958;SDS011;5019;48.012;7.812;2023-03-02T09:39:27;29.60;;;13.60;;
9958;SDS011;5019;48.012;7.812;2023-03-02T09:49:52;21.93;;;13.50;;
9958;SDS011;5019;48.012;7.812;2023-03-02T09:54:52;24.27;;;11.97;;
9958;SDS011;5019;48.012;7.812;2023-03-02T09:57:25;38.63;;;15.83;;
9958;SDS011;5019;48.012;7.812;2023-03-02T09:59:53;22.97;;;13.83;;
9958;SDS011;5019;48.012;7.812;2023-03-02T10:04:52;24.20;;;11.80;;
9958;SDS011;5019;48.012;7.812;2023-03-02T10:07:21;28.00;;;13.43;;
9958;SDS011;5019;48.012;7.812;2023-03-02T10:09:49;27.50;;;12.63;;
9958;SDS011;5019;48.012;7.812;2023-03-02T10:14:43;23.90;;;11.70;;
9958;SDS011;5019;48.012;7.812;2023-03-02T10:19:43;31.07;;;13.53;;
9958;SDS011;5019;48.012;7.812;2023-03-02T10:22:14;21.23;;;13.13;;
9958;SDS011;5019;48.012;7.812;2023-03-02T10:24:56;25.83;;;13.50;;
9958;SDS011;5019;48.012;7.812;2023-03-02T10:27:32;20.77;;;13.27;;
9958;SDS011;5019;48.012;7.812;2023-03-02T10:30:00;31.10;;;15.00;;
9958;SDS011;5019;48.012;7.812;2023-03-02T10:32:30;26.30;;;13.33;;
9958;SDS011;5019;48.012;7.812;2023-03-02T10:34:57;20.53;;;12.63;;
9958;SDS011;5019;48.012;7.812;2023-03-02T10:37:25;28.50;;;11.90;;
9958;SDS011;5019;48.012;7.812;2023-03-02T10:39:53;37.80;;;14.90;;
9958;SDS011;5019;48.012;7.812;2023-03-02T10:42:29;24.17;;;12.00;;
9958;SDS011;5019;48.012;7.812;2023-03-02T10:45:05;26.47;;;12.80;;
9958;SDS011;5019;48.012;7.812;2023-03-02T10:47:32;33.60;;;15.00;;
9958;SDS011;5019;48.012;7.812;2023-03-02T10:49:58;28.13;;;13.00;;
9958;SDS011;5019;48.012;7.812;2023-03-02T10:52:26;26.47;;;13.00;;
9958;SDS011;5019;48.012;7.812;2023-03-02T10:55:02;25.57;;;12.77;;
9958;SDS011;5019;48.012;7.812;2023-03-02T11:00:03;31.33;;;14.17;;
9958;SDS011;5019;48.012;7.812;2023-03-02T11:02:31;26.00;;;13.43;;
9958;SDS011;5019;48.012;7.812;2023-03-02T11:05:07;28.93;;;12.23;;
9958;SDS011;5019;48.012;7.812;2023-03-02T11:07:36;21.10;;;11.83;;
9958;SDS011;5019;48.012;7.812;2023-03-02T11:10:14;25.67;;;12.60;;
9958;SDS011;5019;48.012;7.812;2023-03-02T11:12:44;22.90;;;12.20;;
9958;SDS011;5019;48.012;7.812;2023-03-02T11:15:15;17.40;;;12.77;;
9958;SDS011;5019;48.012;7.812;2023-03-02T11:17:42;27.97;;;13.47;;
9958;SDS011;5019;48.012;7.812;2023-03-02T11:20:23;25.53;;;13.17;;
9958;SDS011;5019;48.012;7.812;2023-03-02T11:22:58;31.30;;;16.13;;
9958;SDS011;5019;48.012;7.812;2023-03-02T11:25:30;28.53;;;15.50;;
9958;SDS011;5019;48.012;7.812;2023-03-02T11:28:11;24.63;;;13.73;;
9958;SDS011;5019;48.012;7.812;2023-03-02T11:30:44;26.73;;;13.40;;
9958;SDS011;5019;48.012;7.812;2023-03-02T11:33:23;21.77;;;13.03;;
9958;SDS011;5019;48.012;7.812;2023-03-02T11:35:54;30.53;;;13.67;;
9958;SDS011;5019;48.012;7.812;2023-03-02T11:38:23;28.07;;;14.23;;
9958;SDS011;5019;48.012;7.812;2023-03-02T11:40:57;34.53;;;16.30;;
9958;SDS011;5019;48.012;7.812;2023-03-02T11:43:25;25.87;;;13.90;;
9958;SDS011;5019;48.012;7.812;2023-03-02T11:46:25;29.87;;;14.30;;
9958;SDS011;5019;48.012;7.812;2023-03-02T11:48:44;25.70;;;14.00;;
9958;SDS011;5019;48.012;7.812;2023-03-02T11:51:17;27.67;;;13.23;;
9958;SDS011;5019;48.012;7.812;2023-03-02T11:53:45;26.43;;;14.83;;
9958;SDS011;5019;48.012;7.812;2023-03-02T11:56:13;34.53;;;13.73;;
9958;SDS011;5019;48.012;7.812;2023-03-02T11:58:40;32.10;;;14.10;;
9958;SDS011;5019;48.012;7.812;2023-03-02T12:01:09;34.60;;;16.43;;
9958;SDS011;5019;48.012;7.812;2023-03-02T12:03:38;29.83;;;14.83;;
9958;SDS011;5019;48.012;7.812;2023-03-02T12:08:40;25.47;;;13.57;;
9958;SDS011;5019;48.012;7.812;2023-03-02T12:11:23;30.20;;;15.33;;
9958;SDS011;5019;48.012;7.812;2023-03-02T12:14:03;37.10;;;15.47;;
9958;SDS011;5019;48.012;7.812;2023-03-02T12:16:34;28.43;;;14.57;;
9958;SDS011;5019;48.012;7.812;2023-03-02T12:19:11;27.73;;;15.20;;
9958;SDS011;5019;48.012;7.812;2023-03-02T12:21:38;28.53;;;14.57;;
9958;SDS011;5019;48.012;7.812;2023-03-02T12:24:17;21.97;;;12.53;;
9958;SDS011;5019;48.012;7.812;2023-03-02T12:26:46;23.30;;;12.97;;
9958;SDS011;5019;48.012;7.812;2023-03-02T12:32:08;29.77;;;16.87;;
9958;SDS011;5019;48.012;7.812;2023-03-02T12:37:20;31.93;;;14.50;;
9958;SDS011;5019;48.012;7.812;2023-03-02T12:45:03;28.50;;;14.07;;
9958;SDS011;5019;48.012;7.812;2023-03-02T12:47:29;28.17;;;14.90;;
9958;SDS011;5019;48.012;7.812;2023-03-02T12:49:59;30.20;;;15.23;;
9958;SDS011;5019;48.012;7.812;2023-03-02T12:52:28;30.93;;;14.93;;
9958;SDS011;5019;48.012;7.812;2023-03-02T12:57:26;28.23;;;14.70;;
9958;SDS011;5019;48.012;7.812;2023-03-02T12:59:53;31.53;;;13.80;;
9958;SDS011;5019;48.012;7.812;2023-03-02T13:05:07;29.87;;;15.00;;
9958;SDS011;5019;48.012;7.812;2023-03-02T13:07:50;30.40;;;15.50;;
9958;SDS011;5019;48.012;7.812;2023-03-02T13:12:44;35.40;;;18.10;;
9958;SDS011;5019;48.012;7.812;2023-03-02T13:15:12;28.53;;;15.87;;
9958;SDS011;5019;48.012;7.812;2023-03-02T13:17:39;27.70;;;13.27;;
9958;SDS011;5019;48.012;7.812;2023-03-02T13:20:05;31.33;;;14.70;;
9958;SDS011;5019;48.012;7.812;2023-03-02T13:22:32;31.10;;;14.77;;
9958;SDS011;5019;48.012;7.812;2023-03-02T13:25:01;27.30;;;13.80;;
9958;SDS011;5019;48.012;7.812;2023-03-02T13:27:29;30.37;;;17.90;;
9958;SDS011;5019;48.012;7.812;2023-03-02T13:29:55;35.27;;;15.03;;
9958;SDS011;5019;48.012;7.812;2023-03-02T13:32:37;24.03;;;13.20;;
9958;SDS011;5019;48.012;7.812;2023-03-02T13:35:13;27.97;;;12.70;;
9958;SDS011;5019;48.012;7.812;2023-03-02T13:37:40;25.27;;;13.33;;
9958;SDS011;5019;48.012;7.812;2023-03-02T13:42:51;21.53;;;13.57;;
9958;SDS011;5019;48.012;7.812;2023-03-02T13:47:50;23.07;;;12.27;;
9958;SDS011;5019;48.012;7.812;2023-03-02T13:50:17;21.13;;;13.17;;
9958;SDS011;5019;48.012;7.812;2023-03-02T13:52:43;24.13;;;14.07;;
9958;SDS011;5019;48.012;7.812;2023-03-02T13:55:13;26.60;;;14.37;;
9958;SDS011;5019;48.012;7.812;2023-03-02T13:57:40;32.87;;;15.30;;
9958;SDS011;5019;48.012;7.812;2023-03-02T14:00:09;35.43;;;15.33;;
9958;SDS011;5019;48.012;7.812;2023-03-02T14:02:36;24.77;;;13.30;;
9958;SDS011;5019;48.012;7.812;2023-03-02T14:05:02;30.67;;;14.30;;
9958;SDS011;5019;48.012;7.812;2023-03-02T14:07:28;24.87;;;14.87;;
9958;SDS011;5019;48.012;7.812;2023-03-02T14:09:54;21.47;;;12.03;;
9958;SDS011;5019;48.012;7.812;2023-03-02T14:12:24;33.60;;;11.70;;
9958;SDS011;5019;48.012;7.812;2023-03-02T14:14:51;25.73;;;13.10;;
9958;SDS011;5019;48.012;7.812;2023-03-02T14:17:20;26.57;;;14.00;;
9958;SDS011;5019;48.012;7.812;2023-03-02T14:19:47;29.87;;;14.50;;
9958;SDS011;5019;48.012;7.812;2023-03-02T14:22:16;28.03;;;14.60;;
9958;SDS011;5019;48.012;7.812;2023-03-02T14:24:42;25.90;;;12.77;;
9958;SDS011;5019;48.012;7.812;2023-03-02T14:27:10;24.70;;;11.23;;
9958;SDS011;5019;48.012;7.812;2023-03-02T14:29:36;21.23;;;12.90;;
9958;SDS011;5019;48.012;7.812;2023-03-02T14:32:03;28.10;;;12.97;;
9958;SDS011;5019;48.012;7.812;2023-03-02T14:34:32;29.37;;;12.77;;
9958;SDS011;5019;48.012;7.812;2023-03-02T14:37:03;23.77;;;13.50;;
9958;SDS011;5019;48.012;7.812;2023-03-02T14:39:37;28.17;;;13.63;;
9958;SDS011;5019;48.012;7.812;2023-03-02T14:42:04;20.83;;;12.60;;
9958;SDS011;5019;48.012;7.812;2023-03-02T14:44:30;28.70;;;14.23;;
9958;SDS011;5019;48.012;7.812;2023-03-02T14:46:56;36.37;;;15.50;;
9958;SDS011;5019;48.012;7.812;2023-03-02T14:49:22;34.20;;;15.33;;
9958;SDS011;5019;48.012;7.812;2023-03-02T14:51:53;32.17;;;15.27;;
9958;SDS011;5019;48.012;7.812;2023-03-02T14:54:20;31.77;;;14.90;;
9958;SDS011;5019;48.012;7.812;2023-03-02T14:56:46;21.57;;;13.40;;
9958;SDS011;5019;48.012;7.812;2023-03-02T14:59:12;23.80;;;11.80;;
9958;SDS011;5019;48.012;7.812;2023-03-02T15:01:39;32.80;;;15.10;;
9958;SDS011;5019;48.012;7.812;2023-03-02T15:04:05;21.80;;;13.87;;
9958;SDS011;5019;48.012;7.812;2023-03-02T15:06:32;28.20;;;14.00;;
9958;SDS011;5019;48.012;7.812;2023-03-02T15:08:59;36.93;;;15.13;;
9958;SDS011;5019;48.012;7.812;2023-03-02T15:11:26;27.00;;;12.30;;
9958;SDS011;5019;48.012;7.812;2023-03-02T15:13:52;33.83;;;14.87;;
9958;SDS011;5019;48.012;7.812;2023-03-02T15:16:18;24.47;;;12.33;;
9958;SDS011;5019;48.012;7.812;2023-03-02T15:18:44;37.33;;;14.47;;
9958;SDS011;5019;48.012;7.812;2023-03-02T15:21:13;30.07;;;12.60;;
9958;SDS011;5019;48.012;7.812;2023-03-02T15:23:40;24.80;;;13.27;;
9958;SDS011;5019;48.012;7.812;2023-03-02T15:26:06;27.50;;;12.57;;
9958;SDS011;5019;48.012;7.812;2023-03-02T15:28:32;29.33;;;12.97;;
9958;SDS011;5019;48.012;7.812;2023-03-02T15:31:04;28.17;;;13.10;;
9958;SDS011;5019;48.012;7.812;2023-03-02T15:33:30;23.93;;;14.40;;
9958;SDS011;5019;48.012;7.812;2023-03-02T15:35:56;24.33;;;14.07;;
9958;SDS011;5019;48.012;7.812;2023-03-02T15:38:23;29.60;;;14.13;;
9958;SDS011;5019;48.012;7.812;2023-03-02T15:40:49;26.93;;;13.80;;
9958;SDS011;5019;48.012;7.812;2023-03-02T15:43:15;30.20;;;15.77;;